createdAt,value
2023-01-09T00:00:18.516Z,7.9
2023-01-09T00:01:18.476Z,7.9
2023-01-09T00:02:18.602Z,7.9
2023-01-09T00:03:18.440Z,7.9
2023-01-09T00:04:18.460Z,7.9
2023-01-09T00:05:18.451Z,7.9
2023-01-09T00:06:18.418Z,7.9
2023-01-09T00:07:18.464Z,7.9
2023-01-09T00:08:18.419Z,7.9
2023-01-09T00:09:18.463Z,7.9
2023-01-09T00:10:18.460Z,7.9
2023-01-09T00:11:18.465Z,7.9
2023-01-09T00:12:18.466Z,7.9
2023-01-09T00:13:18.491Z,7.9
2023-01-09T00:14:18.409Z,7.9
2023-01-09T00:15:18.424Z,7.9
2023-01-09T00:16:18.558Z,7.9
2023-01-09T00:17:18.496Z,7.9
2023-01-09T00:18:18.460Z,7.9
2023-01-09T00:19:18.444Z,7.6
2023-01-09T00:20:18.464Z,7.6
2023-01-09T00:21:18.464Z,7.5
2023-01-09T00:22:18.452Z,7.5
2023-01-09T00:23:18.430Z,7.5
2023-01-09T00:24:18.446Z,7.5
2023-01-09T00:25:18.449Z,7.5
2023-01-09T00:26:18.514Z,7.5
2023-01-09T00:27:18.516Z,7.5
2023-01-09T00:28:18.427Z,7.5
2023-01-09T00:29:18.455Z,7.5
2023-01-09T00:30:18.450Z,7.5
2023-01-09T00:31:18.477Z,7.5
2023-01-09T00:32:18.471Z,7.5
2023-01-09T00:33:18.449Z,7.5
2023-01-09T00:34:18.457Z,7.5
2023-01-09T00:35:18.474Z,7.5
2023-01-09T00:36:18.513Z,7.5
2023-01-09T00:37:18.531Z,7.5
2023-01-09T00:38:18.457Z,7.5
2023-01-09T00:39:18.451Z,7.5
2023-01-09T00:40:18.467Z,7.5
2023-01-09T00:41:18.554Z,7.5
2023-01-09T00:42:18.457Z,7.5
2023-01-09T00:43:18.438Z,7.5
2023-01-09T00:44:18.455Z,7.5
2023-01-09T00:45:18.469Z,7.5
2023-01-09T00:46:18.568Z,7.5
2023-01-09T00:47:18.506Z,7.5
2023-01-09T00:48:18.458Z,7.5
2023-01-09T00:49:18.455Z,7.5
2023-01-09T00:50:18.509Z,7.5
2023-01-09T00:51:18.462Z,7.5
2023-01-09T00:52:18.501Z,7.5
2023-01-09T00:53:18.460Z,7.5
2023-01-09T00:54:18.483Z,7.5
2023-01-09T00:55:18.457Z,7.5
2023-01-09T00:56:18.518Z,7.5
2023-01-09T00:57:18.466Z,7.5
2023-01-09T00:58:18.478Z,7.5
2023-01-09T00:59:18.460Z,7.5
2023-01-09T01:00:18.466Z,7.5
2023-01-09T01:01:18.586Z,7
2023-01-09T01:02:18.662Z,7
2023-01-09T01:03:18.477Z,7
2023-01-09T01:04:18.471Z,7
2023-01-09T01:05:18.439Z,7
2023-01-09T01:06:18.504Z,7
2023-01-09T01:07:18.457Z,7
2023-01-09T01:08:18.459Z,7
2023-01-09T01:09:18.457Z,7
2023-01-09T01:10:18.482Z,7
2023-01-09T01:11:18.461Z,7
2023-01-09T01:12:18.505Z,7
2023-01-09T01:13:18.463Z,7
2023-01-09T01:14:18.442Z,7
2023-01-09T01:15:18.451Z,7
2023-01-09T01:16:18.589Z,7
2023-01-09T01:17:18.444Z,6.8
2023-01-09T01:18:18.468Z,6.8
2023-01-09T01:19:18.467Z,6.8
2023-01-09T01:20:18.455Z,6.8
2023-01-09T01:21:18.465Z,6.8
2023-01-09T01:22:18.482Z,6.8
2023-01-09T01:23:18.487Z,6.8
2023-01-09T01:24:18.469Z,6.8
2023-01-09T01:25:18.433Z,6.8
2023-01-09T01:26:18.505Z,6.8
2023-01-09T01:27:18.483Z,6.6
2023-01-09T01:28:18.479Z,6.6
2023-01-09T01:29:18.452Z,6.6
2023-01-09T01:30:18.498Z,6.6
2023-01-09T01:31:18.506Z,6.6
2023-01-09T01:32:18.483Z,6.6
2023-01-09T01:33:18.524Z,6.6
2023-01-09T01:34:18.483Z,6.6
2023-01-09T01:35:18.495Z,6.6
2023-01-09T01:36:18.541Z,6.6
2023-01-09T01:37:18.471Z,6.6
2023-01-09T01:38:18.480Z,6.6
2023-01-09T01:39:18.488Z,6.6
2023-01-09T01:40:18.472Z,6.6
2023-01-09T01:41:18.481Z,6.6
2023-01-09T01:42:18.478Z,6.6
2023-01-09T01:43:18.534Z,6.6
2023-01-09T01:44:18.487Z,6.6
2023-01-09T01:45:18.504Z,6.6
2023-01-09T01:46:18.545Z,6.6
2023-01-09T01:47:18.480Z,6.6
2023-01-09T01:48:18.472Z,6.1
2023-01-09T01:49:18.511Z,6.1
2023-01-09T01:50:18.498Z,6.1
2023-01-09T01:51:18.485Z,6.1
2023-01-09T01:52:18.483Z,6.1
2023-01-09T01:53:18.475Z,6.1
2023-01-09T01:54:18.495Z,6.1
2023-01-09T01:55:18.497Z,6.1
2023-01-09T01:56:18.477Z,6.1
2023-01-09T01:57:18.491Z,6.1
2023-01-09T01:58:18.475Z,6.1
2023-01-09T01:59:18.495Z,6.1
2023-01-09T02:00:18.541Z,6.1
2023-01-09T02:01:18.628Z,5.9
2023-01-09T02:02:18.651Z,5.9
2023-01-09T02:03:18.501Z,5.9
2023-01-09T02:04:18.474Z,5.9
2023-01-09T02:05:18.539Z,5.9
2023-01-09T02:06:18.488Z,5.9
2023-01-09T02:07:18.490Z,5.9
2023-01-09T02:08:18.466Z,5.9
2023-01-09T02:09:18.492Z,5.9
2023-01-09T02:10:18.482Z,5.9
2023-01-09T02:11:18.499Z,5.9
2023-01-09T02:12:18.478Z,5.9
2023-01-09T02:13:18.529Z,5.9
2023-01-09T02:14:18.483Z,5.9
2023-01-09T02:15:18.485Z,5.9
2023-01-09T02:16:18.559Z,5.8
2023-01-09T02:17:18.492Z,5.8
2023-01-09T02:18:18.490Z,5.8
2023-01-09T02:19:18.496Z,5.8
2023-01-09T02:20:18.538Z,5.8
2023-01-09T02:21:18.497Z,5.8
2023-01-09T02:22:18.516Z,5.8
2023-01-09T02:23:18.501Z,5.8
2023-01-09T02:24:18.489Z,5.8
2023-01-09T02:25:18.481Z,5.8
2023-01-09T02:26:18.522Z,5.8
2023-01-09T02:27:18.502Z,5.8
2023-01-09T02:28:18.496Z,5.8
2023-01-09T02:29:18.486Z,5.8
2023-01-09T02:30:18.503Z,5.8
2023-01-09T02:31:18.551Z,5.8
2023-01-09T02:32:18.521Z,5.8
2023-01-09T02:33:18.498Z,5.8
2023-01-09T02:34:18.504Z,5.8
2023-01-09T02:35:18.523Z,5.8
2023-01-09T02:36:18.502Z,5.8
2023-01-09T02:37:18.537Z,5.8
2023-01-09T02:38:18.506Z,5.8
2023-01-09T02:39:18.499Z,5.8
2023-01-09T02:40:18.515Z,5.8
2023-01-09T02:41:18.511Z,5.7
2023-01-09T02:42:18.516Z,5.7
2023-01-09T02:43:18.482Z,5.7
2023-01-09T02:44:18.493Z,5.7
2023-01-09T02:45:18.486Z,5.7
2023-01-09T02:46:18.502Z,5.7
2023-01-09T02:47:18.514Z,5.7
2023-01-09T02:48:18.523Z,5.7
2023-01-09T02:49:18.521Z,5.7
2023-01-09T02:50:18.525Z,5.7
2023-01-09T02:51:18.628Z,5.7
2023-01-09T02:52:18.508Z,5.7
2023-01-09T02:53:18.490Z,5.7
2023-01-09T02:54:18.488Z,5.7
2023-01-09T02:55:18.509Z,5.7
2023-01-09T02:56:18.489Z,5.7
2023-01-09T02:57:18.543Z,5.6
2023-01-09T02:58:18.531Z,5.6
2023-01-09T02:59:18.507Z,5.6
2023-01-09T03:00:18.510Z,5.6
2023-01-09T03:01:18.696Z,5.6
2023-01-09T03:02:18.526Z,5.6
2023-01-09T03:03:18.515Z,5.6
2023-01-09T03:04:18.519Z,5.6
2023-01-09T03:05:18.510Z,5.6
2023-01-09T03:06:18.515Z,5.6
2023-01-09T03:07:18.522Z,5.6
2023-01-09T03:08:18.555Z,5.6
2023-01-09T03:09:18.516Z,5.6
2023-01-09T03:10:18.551Z,5.6
2023-01-09T03:11:18.521Z,5.6
2023-01-09T03:12:18.526Z,5.6
2023-01-09T03:13:18.505Z,5.6
2023-01-09T03:14:18.580Z,5.6
2023-01-09T03:15:18.507Z,5.6
2023-01-09T03:16:18.618Z,5.6
2023-01-09T03:17:18.510Z,5.6
2023-01-09T03:18:18.511Z,5.6
2023-01-09T03:19:18.516Z,5.6
2023-01-09T03:20:18.597Z,5.6
2023-01-09T03:21:18.548Z,5.6
2023-01-09T03:22:18.515Z,5.6
2023-01-09T03:23:18.516Z,5.6
2023-01-09T03:24:18.513Z,5.6
2023-01-09T03:25:18.539Z,5.5
2023-01-09T03:26:18.571Z,5.5
2023-01-09T03:27:18.566Z,5.5
2023-01-09T03:28:18.520Z,5.5
2023-01-09T03:29:18.528Z,5.5
2023-01-09T03:30:18.523Z,5.5
2023-01-09T03:31:18.572Z,5.5
2023-01-09T03:32:18.527Z,5.5
2023-01-09T03:33:18.513Z,5.5
2023-01-09T03:34:18.539Z,5.5
2023-01-09T03:35:18.517Z,5.5
2023-01-09T03:36:18.570Z,5.5
2023-01-09T03:37:18.535Z,5.5
2023-01-09T03:38:18.527Z,5.5
2023-01-09T03:39:18.535Z,5.5
2023-01-09T03:40:18.523Z,5.5
2023-01-09T03:41:18.512Z,5.5
2023-01-09T03:42:18.557Z,5.5
2023-01-09T03:43:18.514Z,5.5
2023-01-09T03:44:18.530Z,5.5
2023-01-09T03:45:18.533Z,5.5
2023-01-09T03:46:18.512Z,5.5
2023-01-09T03:47:18.532Z,5.5
2023-01-09T03:48:18.541Z,5.5
2023-01-09T03:49:18.535Z,5.5
2023-01-09T03:50:18.527Z,5.5
2023-01-09T03:51:18.544Z,5.5
2023-01-09T03:52:18.538Z,5.5
2023-01-09T03:53:18.572Z,5.5
2023-01-09T03:54:18.525Z,5.5
2023-01-09T03:55:18.526Z,5.5
2023-01-09T03:56:18.581Z,5.5
2023-01-09T03:57:19.549Z,5.5
2023-01-09T03:58:18.531Z,5.5
2023-01-09T03:59:18.542Z,5.5
2023-01-09T04:00:18.524Z,5.5
2023-01-09T04:01:18.678Z,5.5
2023-01-09T04:02:18.575Z,5.5
2023-01-09T04:03:18.543Z,5.5
2023-01-09T04:04:18.551Z,5.2
2023-01-09T04:05:18.549Z,5.2
2023-01-09T04:06:18.588Z,5.2
2023-01-09T04:07:18.582Z,5.2
2023-01-09T04:08:18.583Z,5.2
2023-01-09T04:09:18.552Z,5.2
2023-01-09T04:10:18.584Z,5.2
2023-01-09T04:11:18.529Z,5.2
2023-01-09T04:12:18.559Z,5.2
2023-01-09T04:13:18.634Z,5.2
2023-01-09T04:14:18.541Z,5.2
2023-01-09T04:15:18.610Z,5.2
2023-01-09T04:16:18.602Z,5.2
2023-01-09T04:17:18.546Z,5.1
2023-01-09T04:18:18.564Z,5.1
2023-01-09T04:19:18.588Z,5.1
2023-01-09T04:20:18.595Z,5.1
2023-01-09T04:21:18.591Z,5.1
2023-01-09T04:22:18.584Z,5.1
2023-01-09T04:23:18.556Z,5.1
2023-01-09T04:24:18.586Z,5.1
2023-01-09T04:25:18.588Z,5.1
2023-01-09T04:26:18.604Z,5.1
2023-01-09T04:27:18.567Z,5.1
2023-01-09T04:28:18.555Z,5.1
2023-01-09T04:29:18.593Z,5.1
2023-01-09T04:30:18.595Z,5.1
2023-01-09T04:31:18.613Z,5.1
2023-01-09T04:32:18.596Z,5.1
2023-01-09T04:33:18.573Z,5.1
2023-01-09T04:34:18.558Z,5.1
2023-01-09T04:35:18.587Z,5.1
2023-01-09T04:36:18.585Z,5.1
2023-01-09T04:37:18.549Z,5.1
2023-01-09T04:38:18.597Z,5.1
2023-01-09T04:39:18.613Z,5.1
2023-01-09T04:40:18.604Z,5.1
2023-01-09T04:41:18.586Z,5.1
2023-01-09T04:42:18.581Z,5.1
2023-01-09T04:43:18.617Z,5.1
2023-01-09T04:44:18.592Z,5.1
2023-01-09T04:45:18.591Z,5.1
2023-01-09T04:46:18.630Z,5.1
2023-01-09T04:47:18.569Z,5.1
2023-01-09T04:48:18.609Z,5.1
2023-01-09T04:49:18.626Z,5.1
2023-01-09T04:50:18.606Z,5.1
2023-01-09T04:51:18.591Z,5.1
2023-01-09T04:52:18.604Z,5.1
2023-01-09T04:53:18.607Z,5.1
2023-01-09T04:54:18.597Z,5.1
2023-01-09T04:55:18.627Z,5.1
2023-01-09T04:56:18.609Z,5
2023-01-09T04:57:18.663Z,5
2023-01-09T04:58:18.615Z,5
2023-01-09T04:59:18.600Z,5
2023-01-09T05:00:18.677Z,5
2023-01-09T05:01:18.714Z,5
2023-01-09T05:02:18.594Z,5
2023-01-09T05:03:18.612Z,5
2023-01-09T05:04:18.621Z,5
2023-01-09T05:05:18.612Z,5
2023-01-09T05:06:18.681Z,5
2023-01-09T05:07:18.624Z,5
2023-01-09T05:08:18.655Z,5.2
2023-01-09T05:09:18.612Z,5.2
2023-01-09T05:10:18.666Z,5.2
2023-01-09T05:11:18.670Z,5.2
2023-01-09T05:12:18.624Z,5.2
2023-01-09T05:13:18.622Z,5.2
2023-01-09T05:14:18.633Z,5.2
2023-01-09T05:15:18.631Z,5.2
2023-01-09T05:16:18.739Z,5.2
2023-01-09T05:17:18.632Z,5.2
2023-01-09T05:18:18.628Z,5.2
2023-01-09T05:19:18.638Z,5.2
2023-01-09T05:20:18.629Z,5.2
2023-01-09T05:21:18.634Z,5.2
2023-01-09T05:22:18.627Z,5.2
2023-01-09T05:23:18.638Z,5.2
2023-01-09T05:24:18.643Z,5.2
2023-01-09T05:25:18.630Z,5.2
2023-01-09T05:26:18.629Z,5.2
2023-01-09T05:27:18.666Z,5.2
2023-01-09T05:28:18.668Z,5.2
2023-01-09T05:29:18.636Z,5.2
2023-01-09T05:30:18.652Z,5.2
2023-01-09T05:31:18.979Z,5.2
2023-01-09T05:32:18.610Z,5.2
2023-01-09T05:33:18.618Z,5.2
2023-01-09T05:34:18.625Z,5.2
2023-01-09T05:35:18.624Z,5.2
2023-01-09T05:36:18.792Z,5.2
2023-01-09T05:37:18.630Z,5.2
2023-01-09T05:38:18.625Z,5.2
2023-01-09T05:39:18.668Z,5.3
2023-01-09T05:40:18.685Z,5.3
2023-01-09T05:41:18.663Z,5.3
2023-01-09T05:42:18.669Z,5.3
2023-01-09T05:43:18.623Z,5.3
2023-01-09T05:44:18.648Z,5.3
2023-01-09T05:45:18.667Z,5.3
2023-01-09T05:46:18.673Z,5.3
2023-01-09T05:47:18.686Z,5.3
2023-01-09T05:48:18.657Z,5.3
2023-01-09T05:49:18.689Z,5.3
2023-01-09T05:50:18.630Z,5.3
2023-01-09T05:51:18.687Z,5.3
2023-01-09T05:52:18.673Z,5.3
2023-01-09T05:53:18.694Z,5.3
2023-01-09T05:54:18.673Z,5.3
2023-01-09T05:55:18.750Z,5.2
2023-01-09T05:56:18.663Z,5.2
2023-01-09T05:57:18.654Z,5.2
2023-01-09T05:58:18.653Z,5.2
2023-01-09T05:59:18.674Z,5.2
2023-01-09T06:00:18.660Z,5.2
2023-01-09T06:01:18.759Z,5.2
2023-01-09T06:02:18.776Z,5.2
2023-01-09T06:03:18.696Z,5.2
2023-01-09T06:04:18.709Z,5.2
2023-01-09T06:05:18.645Z,5.2
2023-01-09T06:06:18.677Z,5.2
2023-01-09T06:07:21.577Z,5.2
2023-01-09T06:08:18.668Z,5.2
2023-01-09T06:09:18.670Z,5.2
2023-01-09T06:10:18.636Z,5.2
2023-01-09T06:11:18.692Z,5.2
2023-01-09T06:12:18.635Z,5.2
2023-01-09T06:13:18.670Z,5.2
2023-01-09T06:14:18.653Z,5.2
2023-01-09T06:15:18.714Z,5.2
2023-01-09T06:16:18.713Z,5.2
2023-01-09T06:17:18.672Z,5.2
2023-01-09T06:18:18.645Z,5.2
2023-01-09T06:19:18.683Z,5.2
2023-01-09T06:20:18.666Z,5.2
2023-01-09T06:21:18.631Z,5.2
2023-01-09T06:22:18.631Z,5.2
2023-01-09T06:23:18.642Z,5.2
2023-01-09T06:24:18.648Z,5.2
2023-01-09T06:25:18.685Z,5.2
2023-01-09T06:26:18.720Z,5.2
2023-01-09T06:27:18.685Z,5.2
2023-01-09T06:28:18.644Z,5.2
2023-01-09T06:29:18.634Z,5.2
2023-01-09T06:30:18.656Z,5.2
2023-01-09T06:31:18.750Z,5.2
2023-01-09T06:32:18.669Z,5.2
2023-01-09T06:33:18.763Z,5.2
2023-01-09T06:34:18.655Z,5.2
2023-01-09T06:35:18.669Z,5.2
2023-01-09T06:36:20.004Z,5.2
2023-01-09T06:37:18.645Z,5.2
2023-01-09T06:38:18.678Z,5.2
2023-01-09T06:39:18.715Z,5.2
2023-01-09T06:40:18.651Z,5.2
2023-01-09T06:41:18.688Z,5.2
2023-01-09T06:42:18.659Z,5.2
2023-01-09T06:43:18.686Z,5.2
2023-01-09T06:44:18.669Z,5.2
2023-01-09T06:45:18.687Z,5.2
2023-01-09T06:46:18.662Z,5.2
2023-01-09T06:47:18.683Z,5.2
2023-01-09T06:48:18.654Z,5.2
2023-01-09T06:49:18.653Z,5.2
2023-01-09T06:50:18.709Z,5.2
2023-01-09T06:51:18.697Z,5.2
2023-01-09T06:52:18.665Z,5.2
2023-01-09T06:53:18.710Z,5.2
2023-01-09T06:54:18.646Z,5.6
2023-01-09T06:55:18.708Z,5.6
2023-01-09T06:56:18.674Z,5.6
2023-01-09T06:57:18.662Z,5.5
2023-01-09T06:58:18.710Z,5.5
2023-01-09T06:59:18.662Z,5.5
2023-01-09T07:00:18.695Z,5.5
2023-01-09T07:01:18.875Z,5.5
2023-01-09T07:02:18.767Z,5.5
2023-01-09T07:03:18.669Z,5.5
2023-01-09T07:04:18.745Z,5.5
2023-01-09T07:05:18.663Z,5.5
2023-01-09T07:06:18.662Z,5.5
2023-01-09T07:07:18.655Z,5.5
2023-01-09T07:08:18.680Z,5.5
2023-01-09T07:09:18.659Z,5.5
2023-01-09T07:10:18.657Z,5.5
2023-01-09T07:11:18.704Z,5.5
2023-01-09T07:12:18.760Z,5.5
2023-01-09T07:13:18.666Z,5.5
2023-01-09T07:14:18.670Z,5.5
2023-01-09T07:15:18.681Z,5.5
2023-01-09T07:16:18.755Z,5.5
2023-01-09T07:17:18.666Z,5.5
2023-01-09T07:18:18.687Z,5.5
2023-01-09T07:19:18.691Z,5.5
2023-01-09T07:20:18.693Z,5.5
2023-01-09T07:21:18.684Z,5.5
2023-01-09T07:22:18.655Z,5.5
2023-01-09T07:23:18.702Z,5.5
2023-01-09T07:24:18.659Z,5.5
2023-01-09T07:25:18.717Z,5.5
2023-01-09T07:26:18.660Z,5.5
2023-01-09T07:27:18.687Z,5.5
2023-01-09T07:28:18.702Z,5.5
2023-01-09T07:29:18.684Z,5.5
2023-01-09T07:30:18.688Z,5.5
2023-01-09T07:31:18.786Z,5.5
2023-01-09T07:32:18.663Z,5.5
2023-01-09T07:33:18.691Z,5.5
2023-01-09T07:34:18.671Z,5.5
2023-01-09T07:35:18.682Z,5.5
2023-01-09T07:36:18.707Z,5.5
2023-01-09T07:37:18.712Z,5.5
2023-01-09T07:38:18.677Z,5.5
2023-01-09T07:39:18.708Z,5.5
2023-01-09T07:40:18.681Z,5.5
2023-01-09T07:41:18.660Z,5.5
2023-01-09T07:42:18.673Z,5.5
2023-01-09T07:43:18.709Z,5.5
2023-01-09T07:44:18.680Z,5.5
2023-01-09T07:45:18.699Z,5.5
2023-01-09T07:46:18.747Z,5.5
2023-01-09T07:47:18.675Z,6
2023-01-09T07:48:18.704Z,6
2023-01-09T07:49:18.708Z,6
2023-01-09T07:50:18.714Z,6
2023-01-09T07:51:18.719Z,6
2023-01-09T07:52:18.675Z,6
2023-01-09T07:53:18.672Z,6
2023-01-09T07:54:18.704Z,6
2023-01-09T07:55:18.688Z,6
2023-01-09T07:56:18.725Z,6
2023-01-09T07:57:18.695Z,6
2023-01-09T07:58:18.685Z,6
2023-01-09T07:59:18.708Z,6
2023-01-09T08:00:18.760Z,6
2023-01-09T08:01:18.825Z,6
2023-01-09T08:02:18.829Z,6
2023-01-09T08:03:18.723Z,6
2023-01-09T08:04:18.679Z,6
2023-01-09T08:05:18.698Z,6
2023-01-09T08:06:18.729Z,6
2023-01-09T08:07:18.717Z,6
2023-01-09T08:08:18.693Z,6
2023-01-09T08:09:18.749Z,6
2023-01-09T08:10:18.731Z,6
2023-01-09T08:11:18.710Z,6
2023-01-09T08:12:18.710Z,6
2023-01-09T08:13:18.699Z,6
2023-01-09T08:14:18.717Z,6
2023-01-09T08:15:18.709Z,6
2023-01-09T08:16:18.798Z,6
2023-01-09T08:17:18.696Z,6
2023-01-09T08:18:18.721Z,6
2023-01-09T08:19:18.719Z,6
2023-01-09T08:20:18.690Z,6
2023-01-09T08:21:18.721Z,6
2023-01-09T08:22:18.702Z,6
2023-01-09T08:23:18.730Z,6
2023-01-09T08:24:18.723Z,6
2023-01-09T08:25:18.727Z,6
2023-01-09T08:26:18.728Z,6
2023-01-09T08:27:18.713Z,6.3
2023-01-09T08:28:18.797Z,6.3
2023-01-09T08:29:18.703Z,6.3
2023-01-09T08:30:18.724Z,6.3
2023-01-09T08:31:18.750Z,6.3
2023-01-09T08:32:18.741Z,6.3
2023-01-09T08:33:18.717Z,6.3
2023-01-09T08:34:18.712Z,6.3
2023-01-09T08:35:18.736Z,6.3
2023-01-09T08:36:18.838Z,6.3
2023-01-09T08:37:18.713Z,6.3
2023-01-09T08:38:18.738Z,6.3
2023-01-09T08:39:18.783Z,6.3
2023-01-09T08:40:18.763Z,6.3
2023-01-09T08:41:18.758Z,6.3
2023-01-09T08:42:18.733Z,6.2
2023-01-09T08:43:18.905Z,6.2
2023-01-09T08:44:18.707Z,6.2
2023-01-09T08:45:18.761Z,6.2
2023-01-09T08:46:18.799Z,6.2
2023-01-09T08:47:18.710Z,6.2
2023-01-09T08:48:18.734Z,6.2
2023-01-09T08:49:18.729Z,6.2
2023-01-09T08:50:18.776Z,6.2
2023-01-09T08:51:18.723Z,6.2
2023-01-09T08:52:18.733Z,6.2
2023-01-09T08:53:18.699Z,6.2
2023-01-09T08:54:18.757Z,6.2
2023-01-09T08:55:18.770Z,6.2
2023-01-09T08:56:18.758Z,6.2
2023-01-09T08:57:18.730Z,6.2
2023-01-09T08:58:18.719Z,6.2
2023-01-09T08:59:18.737Z,6.2
2023-01-09T09:00:18.727Z,6.2
2023-01-09T09:01:18.898Z,6.2
2023-01-09T09:02:19.045Z,6.2
2023-01-09T09:03:18.771Z,6.2
2023-01-09T09:04:18.736Z,6.2
2023-01-09T09:05:18.756Z,6.2
2023-01-09T09:06:18.802Z,6.2
2023-01-09T09:07:18.746Z,6.2
2023-01-09T09:08:18.768Z,6.2
2023-01-09T09:09:18.758Z,6.2
2023-01-09T09:10:18.758Z,6.2
2023-01-09T09:11:18.739Z,6.2
2023-01-09T09:12:18.742Z,6.2
2023-01-09T09:13:18.747Z,6.2
2023-01-09T09:14:18.792Z,6.2
2023-01-09T09:15:18.780Z,6.2
2023-01-09T09:16:18.812Z,6.2
2023-01-09T09:17:18.757Z,6.2
2023-01-09T09:18:18.773Z,6.2
2023-01-09T09:19:18.833Z,6.2
2023-01-09T09:20:18.769Z,6.2
2023-01-09T09:21:18.757Z,6.2
2023-01-09T09:22:18.775Z,6.2
2023-01-09T09:23:18.748Z,6.2
2023-01-09T09:24:18.796Z,6.2
2023-01-09T09:25:18.785Z,6.2
2023-01-09T09:26:18.763Z,6.2
2023-01-09T09:27:18.756Z,6.2
2023-01-09T09:28:18.750Z,6.2
2023-01-09T09:29:18.781Z,6.2
2023-01-09T09:30:18.839Z,6.2
2023-01-09T09:31:19.835Z,6.2
2023-01-09T09:32:19.752Z,6.2
2023-01-09T09:33:18.765Z,6.2
2023-01-09T09:34:18.769Z,6.2
2023-01-09T09:35:18.767Z,6.3
2023-01-09T09:36:18.892Z,6.3
2023-01-09T09:37:18.772Z,6.4
2023-01-09T09:38:18.755Z,6.4
2023-01-09T09:39:18.770Z,6.4
2023-01-09T09:40:19.242Z,6.4
2023-01-09T09:41:18.825Z,6.4
2023-01-09T09:42:19.013Z,6.4
2023-01-09T09:43:18.813Z,6.4
2023-01-09T09:44:18.759Z,6.4
2023-01-09T09:45:18.792Z,6.4
2023-01-09T09:46:18.861Z,6.4
2023-01-09T09:47:18.831Z,6.4
2023-01-09T09:48:18.771Z,6.4
2023-01-09T09:49:18.782Z,6.4
2023-01-09T09:50:18.771Z,6.4
2023-01-09T09:51:18.830Z,6.4
2023-01-09T09:52:18.772Z,6.4
2023-01-09T09:53:18.785Z,6.4
2023-01-09T09:54:18.791Z,6.4
2023-01-09T09:55:18.816Z,6.4
2023-01-09T09:56:18.784Z,6.4
2023-01-09T09:57:18.802Z,6.5
2023-01-09T09:58:20.069Z,6.5
2023-01-09T09:59:18.854Z,6.5
2023-01-09T10:00:18.817Z,6.5
2023-01-09T10:01:18.792Z,6.5
2023-01-09T10:02:19.848Z,6.5
2023-01-09T10:03:26.237Z,6.5
2023-01-09T10:04:18.815Z,6.5
2023-01-09T10:05:18.782Z,6.5
2023-01-09T10:06:18.817Z,6.5
2023-01-09T10:07:18.786Z,6.5
2023-01-09T10:08:18.809Z,6.5
2023-01-09T10:09:18.790Z,6.5
2023-01-09T10:10:18.833Z,6.5
2023-01-09T10:11:18.818Z,6.5
2023-01-09T10:12:18.841Z,6.5
2023-01-09T10:13:18.806Z,6.5
2023-01-09T10:14:24.188Z,6.5
2023-01-09T10:15:19.792Z,6.5
2023-01-09T10:16:18.876Z,6.8
2023-01-09T10:17:18.806Z,6.8
2023-01-09T10:18:18.787Z,6.8
2023-01-09T10:19:19.042Z,6.8
2023-01-09T10:20:18.783Z,6.8
2023-01-09T10:21:18.801Z,6.8
2023-01-09T10:22:18.787Z,6.8
2023-01-09T10:23:18.782Z,6.8
2023-01-09T10:24:18.781Z,6.8
2023-01-09T10:25:19.058Z,7
2023-01-09T10:26:18.818Z,7
2023-01-09T10:27:18.781Z,7
2023-01-09T10:28:18.788Z,7
2023-01-09T10:29:18.781Z,7
2023-01-09T10:30:18.809Z,7
2023-01-09T10:31:18.838Z,7.3
2023-01-09T10:32:18.782Z,7.3
2023-01-09T10:33:18.796Z,7.3
2023-01-09T10:34:18.789Z,7.3
2023-01-09T10:35:18.795Z,7.5
2023-01-09T10:36:18.796Z,7.5
2023-01-09T10:37:18.837Z,7.5
2023-01-09T10:38:18.816Z,7.5
2023-01-09T10:39:18.784Z,7.5
2023-01-09T10:40:18.778Z,7.5
2023-01-09T10:41:18.833Z,7.5
2023-01-09T10:42:18.879Z,7.8
2023-01-09T10:43:18.841Z,7.8
2023-01-09T10:44:18.780Z,7.8
2023-01-09T10:45:18.796Z,7.8
2023-01-09T10:46:18.873Z,7.8
2023-01-09T10:47:18.873Z,7.8
2023-01-09T10:48:18.791Z,7.8
2023-01-09T10:49:18.855Z,7.8
2023-01-09T10:50:18.816Z,7.8
2023-01-09T10:51:18.818Z,7.8
2023-01-09T10:52:18.799Z,7.8
2023-01-09T10:53:18.845Z,7.8
2023-01-09T10:54:18.798Z,7.7
2023-01-09T10:55:18.810Z,7.7
2023-01-09T10:56:18.834Z,7.7
2023-01-09T10:57:18.797Z,7.7
2023-01-09T10:58:18.872Z,7.7
2023-01-09T10:59:18.855Z,7.7
2023-01-09T11:00:19.271Z,7.7
2023-01-09T11:01:18.851Z,7.7
2023-01-09T11:02:18.889Z,7.7
2023-01-09T11:03:18.877Z,7.7
2023-01-09T11:04:18.810Z,7.7
2023-01-09T11:05:18.833Z,7.7
2023-01-09T11:06:18.815Z,7.7
2023-01-09T11:07:18.831Z,7.7
2023-01-09T11:08:18.813Z,7.7
2023-01-09T11:09:18.843Z,7.7
2023-01-09T11:10:18.839Z,7.7
2023-01-09T11:11:18.835Z,7.7
2023-01-09T11:12:18.817Z,7.7
2023-01-09T11:13:18.813Z,7.7
2023-01-09T11:14:18.805Z,7.7
2023-01-09T11:15:18.842Z,7.7
2023-01-09T11:16:18.986Z,7.7
2023-01-09T11:17:18.812Z,7.7
2023-01-09T11:18:18.824Z,7.7
2023-01-09T11:19:18.827Z,7.7
2023-01-09T11:20:18.903Z,7.7
2023-01-09T11:21:18.862Z,7.7
2023-01-09T11:22:18.875Z,7.7
2023-01-09T11:23:18.826Z,7.7
2023-01-09T11:24:18.964Z,7.7
2023-01-09T11:25:18.857Z,7.7
2023-01-09T11:26:18.872Z,7.7
2023-01-09T11:27:18.829Z,7.7
2023-01-09T11:28:18.843Z,7.7
2023-01-09T11:29:18.836Z,7.7
2023-01-09T11:30:18.859Z,7.7
2023-01-09T11:31:18.847Z,7.7
2023-01-09T11:32:18.980Z,7.7
2023-01-09T11:33:18.870Z,7.7
2023-01-09T11:34:18.844Z,7.7
2023-01-09T11:35:18.853Z,7.7
2023-01-09T11:36:18.852Z,7.7
2023-01-09T11:37:18.843Z,7.7
2023-01-09T11:38:18.850Z,7.7
2023-01-09T11:39:18.861Z,7.7
2023-01-09T11:40:18.898Z,7.7
2023-01-09T11:41:18.879Z,7.7
2023-01-09T11:42:18.839Z,7.7
2023-01-09T11:43:18.859Z,7.7
2023-01-09T11:44:18.909Z,7.7
2023-01-09T11:45:18.859Z,7.7
2023-01-09T11:46:18.977Z,7.7
2023-01-09T11:47:18.861Z,7.7
2023-01-09T11:48:18.881Z,7.7
2023-01-09T11:49:18.944Z,7.7
2023-01-09T11:50:18.864Z,7.7
2023-01-09T11:51:18.913Z,7.7
2023-01-09T11:52:18.871Z,7.7
2023-01-09T11:53:18.879Z,7.7
2023-01-09T11:54:18.862Z,7.7
2023-01-09T11:55:19.012Z,7.7
2023-01-09T11:56:18.874Z,7.9
2023-01-09T11:57:18.870Z,7.9
2023-01-09T11:58:18.867Z,7.9
2023-01-09T11:59:18.884Z,7.9
2023-01-09T12:00:18.946Z,7.9
2023-01-09T12:01:18.877Z,7.9
2023-01-09T12:02:18.954Z,7.9
2023-01-09T12:03:18.940Z,7.9
2023-01-09T12:04:18.874Z,7.9
2023-01-09T12:05:18.910Z,7.9
2023-01-09T12:06:18.923Z,7.9
2023-01-09T12:07:18.924Z,7.9
2023-01-09T12:08:18.879Z,7.9
2023-01-09T12:09:18.875Z,7.9
2023-01-09T12:10:18.885Z,7.9
2023-01-09T12:11:18.914Z,7.9
2023-01-09T12:12:19.021Z,7.9
2023-01-09T12:13:18.869Z,7.9
2023-01-09T12:14:18.895Z,7.9
2023-01-09T12:15:18.899Z,7.9
2023-01-09T12:16:18.984Z,7.9
2023-01-09T12:17:18.893Z,7.9
2023-01-09T12:18:18.869Z,7.9
2023-01-09T12:19:18.897Z,7.8
2023-01-09T12:20:18.911Z,7.8
2023-01-09T12:21:18.891Z,7.8
2023-01-09T12:22:18.876Z,7.8
2023-01-09T12:23:18.891Z,7.8
2023-01-09T12:24:18.904Z,7.8
2023-01-09T12:25:18.919Z,7.8
2023-01-09T12:26:18.904Z,7.8
2023-01-09T12:27:18.898Z,7.8
2023-01-09T12:28:18.876Z,7.8
2023-01-09T12:29:18.906Z,7.8
2023-01-09T12:30:18.901Z,7.8
2023-01-09T12:31:18.964Z,7.8
2023-01-09T12:32:18.905Z,7.8
2023-01-09T12:33:18.899Z,7.8
2023-01-09T12:34:18.877Z,7.8
2023-01-09T12:35:18.900Z,7.8
2023-01-09T12:36:18.906Z,7.8
2023-01-09T12:37:19.911Z,7.8
2023-01-09T12:38:18.893Z,7.8
2023-01-09T12:39:18.899Z,7.8
2023-01-09T12:40:18.911Z,7.7
2023-01-09T12:41:18.915Z,7.7
2023-01-09T12:42:18.890Z,7.7
2023-01-09T12:43:18.954Z,7.7
2023-01-09T12:44:34.060Z,7.7
2023-01-09T12:45:18.908Z,7.7
2023-01-09T12:46:18.896Z,7.7
2023-01-09T12:47:18.895Z,7.7
2023-01-09T12:48:18.913Z,7.7
2023-01-09T12:49:18.927Z,7.7
2023-01-09T12:50:18.892Z,7.7
2023-01-09T12:51:18.898Z,7.7
2023-01-09T12:52:18.968Z,7.7
2023-01-09T12:53:18.924Z,7.7
2023-01-09T12:54:18.953Z,7.7
2023-01-09T12:55:18.924Z,7.7
2023-01-09T12:56:18.925Z,7.7
2023-01-09T12:57:18.908Z,7.7
2023-01-09T12:58:18.945Z,7.7
2023-01-09T12:59:18.918Z,7.7
2023-01-09T13:00:18.954Z,7.7
2023-01-09T13:01:18.980Z,7.7
2023-01-09T13:02:19.136Z,7.7
2023-01-09T13:03:18.923Z,7.7
2023-01-09T13:04:18.922Z,7.7
2023-01-09T13:05:18.943Z,7.7
2023-01-09T13:06:18.907Z,7.7
2023-01-09T13:07:18.918Z,7.7
2023-01-09T13:08:18.933Z,7.7
2023-01-09T13:09:18.969Z,7.7
2023-01-09T13:10:18.924Z,7.7
2023-01-09T13:11:20.813Z,7.7
2023-01-09T13:12:18.924Z,7.7
2023-01-09T13:13:18.995Z,7.7
2023-01-09T13:14:18.985Z,7.7
2023-01-09T13:15:18.957Z,7.7
2023-01-09T13:16:19.991Z,7.7
2023-01-09T13:17:18.947Z,7.6
2023-01-09T13:18:18.971Z,7.6
2023-01-09T13:19:18.971Z,7.6
2023-01-09T13:20:19.010Z,7.6
2023-01-09T13:21:18.950Z,7.6
2023-01-09T13:22:18.969Z,7.6
2023-01-09T13:23:18.952Z,7.6
2023-01-09T13:24:18.988Z,7.6
2023-01-09T13:25:18.926Z,7.6
2023-01-09T13:26:18.960Z,7.6
2023-01-09T13:27:18.945Z,7.6
2023-01-09T13:28:19.000Z,7.6
2023-01-09T13:29:18.973Z,7.6
2023-01-09T13:30:18.935Z,7.6
2023-01-09T13:31:18.975Z,7.6
2023-01-09T13:32:18.963Z,7.6
2023-01-09T13:33:18.951Z,7.6
2023-01-09T13:34:22.547Z,7.6
2023-01-09T13:35:18.944Z,7.6
2023-01-09T13:36:19.291Z,7.6
2023-01-09T13:37:18.930Z,7.6
2023-01-09T13:38:18.958Z,7.6
2023-01-09T13:39:18.951Z,7.6
2023-01-09T13:40:18.990Z,7.6
2023-01-09T13:41:18.925Z,7.6
2023-01-09T13:42:18.953Z,7.6
2023-01-09T13:43:19.010Z,7.6
2023-01-09T13:44:18.977Z,7.6
2023-01-09T13:45:18.956Z,7.6
2023-01-09T13:46:18.992Z,7.6
2023-01-09T13:47:18.966Z,7.6
2023-01-09T13:48:18.961Z,7.6
2023-01-09T13:49:18.965Z,7.6
2023-01-09T13:50:18.960Z,7.6
2023-01-09T13:51:18.971Z,7.6